Time;durP1;ratioP1;P1;durP2;ratioP2;P2;SDS_P1;SDS_P2;PMS_P1;PMS_P2;Temp;Humidity;BMP_temperature;BMP_pressure;BME280_temperature;BME280_humidity;BME280_pressure;Samples;Min_cycle;Max_cycle;Signal;HPM_P1;HPM_P2
2024/01/01 00:00:05;;;;;;;;;;;;;;;4.77;78.27;99181.42;109415;1252;72794;-61
2024/01/01 00:02:38;;;;;;;;;;;;;;;4.76;77.92;99176.59;109496;1252;59777;-59
2024/01/01 00:05:06;;;;;;;;;;;;;;;4.87;77.31;99173.31;109507;1252;59865;-59
2024/01/01 00:07:33;;;;;;;;;;;;;;;5.00;76.74;99174.19;109446;1253;74212;-60
2024/01/01 00:10:01;;;;;;;;;;;;;;;4.98;76.97;99173.92;109515;1252;68580;-59
2024/01/01 00:12:28;;;;;;;;;;;;;;;4.97;77.05;99172.83;109456;1253;72746;-60
2024/01/01 00:14:56;;;;;;;;;;;;;;;4.93;77.33;99170.44;109186;1254;59754;-61
2024/01/01 00:17:23;;;;;;;;;;;;;;;4.93;77.29;99167.79;109450;1252;59857;-60
2024/01/01 00:19:51;;;;;;;;;;;;;;;4.99;77.20;99170.48;109506;1252;75582;-60
2024/01/01 00:22:18;;;;;;;;;;;;;;;4.96;77.52;99174.40;109497;1252;67770;-60
2024/01/01 00:24:46;;;;;;;;;;;;;;;4.99;77.73;99168.48;109542;1252;72766;-59
2024/01/01 00:27:13;;;;;;;;;;;;;;;4.97;78.39;99166.00;109492;1253;59762;-60
2024/01/01 00:29:41;;;;;;;;;;;;;;;4.93;78.86;99159.96;109625;1252;60336;-60
2024/01/01 00:32:08;;;;;;;;;;;;;;;4.91;79.09;99150.29;109518;1253;75811;-63
2024/01/01 00:34:36;;;;;;;;;;;;;;;5.11;78.03;99144.40;109382;1253;68911;-60
2024/01/01 00:37:04;;;;;;;;;;;;;;;5.07;78.48;99143.95;109472;1252;72714;-60
2024/01/01 00:39:31;;;;;;;;;;;;;;;5.14;78.23;99138.69;109319;1253;59799;-60
2024/01/01 00:41:59;;;;;;;;;;;;;;;5.06;78.51;99132.94;109536;1252;59680;-59
2024/01/01 00:44:27;;;;;;;;;;;;;;;5.04;78.89;99122.04;109493;1252;75548;-61
2024/01/01 00:46:55;;;;;;;;;;;;;;;5.18;78.14;99117.33;109398;1253;67587;-59
2024/01/01 00:49:22;;;;;;;;;;;;;;;5.26;77.65;99116.98;109513;1252;71499;-61
2024/01/01 00:51:50;;;;;;;;;;;;;;;5.36;77.44;99122.46;109463;1253;59844;-61
2024/01/01 00:54:17;;;;;;;;;;;;;;;5.29;77.73;99114.40;109506;1253;59700;-60
2024/01/01 00:56:45;;;;;;;;;;;;;;;5.31;77.56;99110.95;109430;1252;74261;-61
2024/01/01 00:59:12;;;;;;;;;;;;;;;5.34;77.74;99103.98;109502;1253;67537;-62
2024/01/01 01:01:40;;;;;;;;;;;;;;;5.37;77.76;99099.60;109418;1253;71527;-60
2024/01/01 01:04:07;;;;;;;;;;;;;;;5.49;77.58;99097.34;109173;1253;60874;-62
2024/01/01 01:06:35;;;;;;;;;;;;;;;5.53;77.64;99093.83;109521;1253;59771;-60
2024/01/01 01:09:05;;;;;;;;;;;;;;;5.50;77.76;99094.55;109575;1254;75492;-61
2024/01/01 01:11:32;;;;;;;;;;;;;;;5.44;78.39;99092.77;109415;1254;67254;-60
2024/01/01 01:14:00;;;;;;;;;;;;;;;5.68;77.30;99092.60;109405;1253;72744;-61
2024/01/01 01:16:27;;;;;;;;;;;;;;;5.71;77.19;99087.46;109449;1253;60939;-60
2024/01/01 01:18:55;;;;;;;;;;;;;;;5.73;77.05;99079.95;109436;1253;59961;-60
2024/01/01 01:21:22;;;;;;;;;;;;;;;5.77;77.03;99081.84;109431;1254;73305;-60
2024/01/01 01:23:50;;;;;;;;;;;;;;;5.86;76.83;99087.14;109185;1254;69082;-62
2024/01/01 01:26:17;;;;;;;;;;;;;;;5.97;76.37;99086.66;109331;1254;72114;-60
2024/01/01 01:28:45;;;;;;;;;;;;;;;5.99;76.32;99081.79;109402;1254;60918;-61
2024/01/01 01:31:12;;;;;;;;;;;;;;;6.09;76.08;99078.06;109419;1254;59887;-60
2024/01/01 01:33:39;;;;;;;;;;;;;;;6.08;76.88;99082.51;109457;1254;75539;-61
2024/01/01 01:36:09;;;;;;;;;;;;;;;6.32;75.44;99076.38;109163;1252;68132;-59
2024/01/01 01:38:38;;;;;;;;;;;;;;;6.35;74.95;99073.11;109160;1256;72719;-60
2024/01/01 01:41:06;;;;;;;;;;;;;;;6.20;75.49;99064.41;109022;1256;59881;-59
2024/01/01 01:43:33;;;;;;;;;;;;;;;5.99;76.41;99055.73;109059;1256;59923;-60
2024/01/01 01:46:00;;;;;;;;;;;;;;;6.01;76.85;99062.08;109107;1256;73255;-59
2024/01/01 01:48:28;;;;;;;;;;;;;;;6.11;76.71;99060.98;109093;1256;68535;-60
2024/01/01 01:50:56;;;;;;;;;;;;;;;6.10;76.82;99056.34;109133;1255;72725;-60
2024/01/01 01:53:26;;;;;;;;;;;;;;;6.24;76.36;99051.00;109076;1256;60921;-60
2024/01/01 01:55:55;;;;;;;;;;;;;;;6.29;76.04;99051.63;109137;1256;59783;-59
2024/01/01 01:58:23;;;;;;;;;;;;;;;6.29;76.12;99051.30;109090;1256;75508;-60
2024/01/01 02:00:50;;;;;;;;;;;;;;;6.41;75.76;99051.69;109063;1256;68860;-60
2024/01/01 02:03:18;;;;;;;;;;;;;;;6.44;75.56;99038.95;109133;1256;72760;-60
2024/01/01 02:05:45;;;;;;;;;;;;;;;6.40;75.67;99031.32;109142;1256;60204;-60
2024/01/01 02:08:13;;;;;;;;;;;;;;;6.14;77.24;99028.97;109134;1255;59859;-59
2024/01/01 02:10:41;;;;;;;;;;;;;;;6.10;77.69;99022.59;109346;1253;75611;-59
2024/01/01 02:13:24;;;;;;;;;;;;;;;6.21;77.20;99015.88;109515;1253;69107;-60
2024/01/01 02:15:51;;;;;;;;;;;;;;;6.14;77.42;99013.51;109335;1256;71450;-59
2024/01/01 02:18:19;;;;;;;;;;;;;;;6.17;77.49;99008.66;109329;1254;59794;-61
2024/01/01 02:20:46;;;;;;;;;;;;;;;6.38;76.38;99006.91;109389;1254;59837;-59
2024/01/01 02:23:18;;;;;;;;;;;;;;;6.37;76.03;99003.70;109354;1253;74571;-64
2024/01/01 02:25:46;;;;;;;;;;;;;;;6.27;76.58;98997.81;109410;1254;68536;-59
2024/01/01 02:28:14;;;;;;;;;;;;;;;6.14;77.55;98987.70;109382;1253;72754;-60
2024/01/01 02:30:42;;;;;;;;;;;;;;;6.23;77.54;98979.61;109354;1254;60936;-60
2024/01/01 02:33:10;;;;;;;;;;;;;;;6.35;77.11;98974.81;109400;1254;59658;-61
2024/01/01 02:35:38;;;;;;;;;;;;;;;6.32;77.53;98973.95;109342;1256;76520;-60
2024/01/01 02:38:07;;;;;;;;;;;;;;;6.45;76.85;98966.76;109371;1254;68863;-59
2024/01/01 02:40:36;;;;;;;;;;;;;;;6.58;76.24;98962.30;109388;1254;72747;-60
2024/01/01 02:43:04;;;;;;;;;;;;;;;6.70;76.00;98964.25;109414;1254;60246;-60
2024/01/01 02:45:31;;;;;;;;;;;;;;;6.81;75.25;98959.14;109527;1251;59894;-60
2024/01/01 02:47:59;;;;;;;;;;;;;;;6.81;75.20;98951.77;109516;1251;75487;-60
2024/01/01 02:50:28;;;;;;;;;;;;;;;6.82;75.44;98956.80;109603;1251;66999;-60
2024/01/01 02:52:56;;;;;;;;;;;;;;;6.81;75.31;98957.23;109557;1251;72537;-61
2024/01/01 02:55:24;;;;;;;;;;;;;;;6.79;75.28;98951.37;109636;1251;59726;-60
2024/01/01 02:57:52;;;;;;;;;;;;;;;6.74;75.54;98943.13;109617;1252;59881;-62
2024/01/01 03:00:19;;;;;;;;;;;;;;;6.83;75.41;98945.19;109650;1251;75599;-62
2024/01/01 03:02:47;;;;;;;;;;;;;;;6.83;75.20;98936.88;109616;1251;68549;-62
2024/01/01 03:05:14;;;;;;;;;;;;;;;6.84;75.17;98933.63;109582;1251;72695;-62
2024/01/01 03:07:42;;;;;;;;;;;;;;;6.82;75.22;98930.72;109508;1253;59980;-60
2024/01/01 03:10:09;;;;;;;;;;;;;;;6.97;74.60;98934.23;109619;1251;59904;-61
2024/01/01 03:12:37;;;;;;;;;;;;;;;7.01;74.28;98937.39;109600;1251;75485;-60
2024/01/01 03:15:04;;;;;;;;;;;;;;;7.10;73.79;98935.54;109574;1251;68921;-62
2024/01/01 03:17:32;;;;;;;;;;;;;;;7.03;73.84;98932.52;109390;1251;72710;-60
2024/01/01 03:19:59;;;;;;;;;;;;;;;6.95;73.86;98930.52;109605;1251;60884;-61
2024/01/01 03:22:27;;;;;;;;;;;;;;;7.03;73.62;98928.57;109183;1251;59941;-61
2024/01/01 03:24:54;;;;;;;;;;;;;;;7.10;73.55;98931.55;109529;1251;75499;-61
2024/01/01 03:27:22;;;;;;;;;;;;;;;7.14;73.51;98925.79;109606;1251;68510;-64
2024/01/01 03:29:49;;;;;;;;;;;;;;;7.20;72.98;98918.06;109507;1251;72719;-64
2024/01/01 03:32:17;;;;;;;;;;;;;;;7.19;73.09;98914.63;109565;1251;59799;-64
2024/01/01 03:34:44;;;;;;;;;;;;;;;7.19;73.30;98911.01;109636;1251;59844;-63
2024/01/01 03:37:12;;;;;;;;;;;;;;;7.34;72.82;98909.71;109560;1253;74211;-65
2024/01/01 03:39:39;;;;;;;;;;;;;;;7.30;72.49;98907.67;109539;1251;67573;-65
2024/01/01 03:42:07;;;;;;;;;;;;;;;7.34;72.62;98905.27;109320;1251;71780;-62
2024/01/01 03:44:34;;;;;;;;;;;;;;;7.28;72.32;98899.96;109524;1251;60950;-64
2024/01/01 03:47:02;;;;;;;;;;;;;;;7.37;72.07;98898.04;109504;1251;59752;-64
2024/01/01 03:49:30;;;;;;;;;;;;;;;7.39;71.72;98891.34;109551;1253;75571;-66
2024/01/01 03:51:58;;;;;;;;;;;;;;;7.36;71.65;98888.05;109596;1252;68686;-65
2024/01/01 03:54:25;;;;;;;;;;;;;;;7.37;71.74;98888.74;109481;1252;72744;-65
2024/01/01 03:56:54;;;;;;;;;;;;;;;7.42;71.52;98892.45;109500;1253;60974;-65
2024/01/01 03:59:22;;;;;;;;;;;;;;;7.40;71.49;98881.42;109602;1253;59729;-65
2024/01/01 04:01:49;;;;;;;;;;;;;;;7.42;71.50;98885.24;109491;1252;74185;-64
2024/01/01 04:04:17;;;;;;;;;;;;;;;7.40;71.44;98882.05;109369;1252;68951;-66
2024/01/01 04:06:44;;;;;;;;;;;;;;;7.42;71.27;98874.62;109575;1253;72708;-64
2024/01/01 04:09:12;;;;;;;;;;;;;;;7.44;71.47;98869.30;109255;1251;61395;-63
2024/01/01 04:11:39;;;;;;;;;;;;;;;7.39;71.61;98864.23;109515;1251;59894;-64
2024/01/01 04:14:07;;;;;;;;;;;;;;;7.31;72.20;98864.43;109531;1251;75502;-64
2024/01/01 04:16:35;;;;;;;;;;;;;;;7.27;72.47;98854.68;109570;1251;68591;-65
2024/01/01 04:19:03;;;;;;;;;;;;;;;7.30;72.45;98855.45;109582;1251;71509;-64
2024/01/01 04:21:31;;;;;;;;;;;;;;;7.36;72.16;98851.10;109503;1253;59883;-64
2024/01/01 04:23:58;;;;;;;;;;;;;;;7.29;72.59;98845.30;109553;1251;59829;-64
2024/01/01 04:26:26;;;;;;;;;;;;;;;7.22;73.07;98840.85;109611;1251;75516;-65
2024/01/01 04:28:53;;;;;;;;;;;;;;;7.30;72.93;98837.72;109596;1251;68972;-64
2024/01/01 04:31:20;;;;;;;;;;;;;;;7.39;72.31;98833.14;109660;1251;71406;-63
2024/01/01 04:33:48;;;;;;;;;;;;;;;7.36;72.44;98824.34;109630;1251;61123;-64
2024/01/01 04:36:15;;;;;;;;;;;;;;;7.43;72.39;98821.27;109587;1252;59906;-65
2024/01/01 04:38:43;;;;;;;;;;;;;;;7.42;72.49;98815.44;109618;1253;75491;-64
2024/01/01 04:41:11;;;;;;;;;;;;;;;7.47;72.59;98806.14;109492;1251;66337;-64
2024/01/01 04:43:40;;;;;;;;;;;;;;;7.53;72.20;98804.66;109568;1252;71486;-64
2024/01/01 04:46:08;;;;;;;;;;;;;;;7.51;72.17;98801.81;109555;1252;61002;-64
2024/01/01 04:48:35;;;;;;;;;;;;;;;7.58;72.13;98803.16;109491;1253;59743;-64
2024/01/01 04:51:03;;;;;;;;;;;;;;;7.63;71.80;98802.30;109360;1252;75636;-64
2024/01/01 04:53:31;;;;;;;;;;;;;;;7.59;72.05;98802.42;109453;1253;68526;-61
2024/01/01 04:55:58;;;;;;;;;;;;;;;7.61;72.12;98801.21;109444;1253;71014;-64
2024/01/01 04:58:26;;;;;;;;;;;;;;;7.65;72.11;98800.70;109342;1253;59794;-65
2024/01/01 05:00:53;;;;;;;;;;;;;;;7.63;72.38;98793.76;109494;1253;59734;-63
2024/01/01 05:03:21;;;;;;;;;;;;;;;7.81;71.54;98798.83;109491;1253;75517;-65
2024/01/01 05:05:48;;;;;;;;;;;;;;;7.84;71.16;98793.89;109488;1253;67749;-67
2024/01/01 05:08:16;;;;;;;;;;;;;;;7.83;71.21;98792.77;109333;1253;72742;-64
2024/01/01 05:10:43;;;;;;;;;;;;;;;7.69;71.71;98786.77;109578;1252;60586;-64
2024/01/01 05:13:11;;;;;;;;;;;;;;;7.72;71.97;98782.61;109510;1252;59894;-65
2024/01/01 05:15:40;;;;;;;;;;;;;;;7.72;71.84;98778.08;109546;1251;75493;-65
2024/01/01 05:18:07;;;;;;;;;;;;;;;7.84;71.39;98785.94;109559;1253;67556;-64
2024/01/01 05:20:35;;;;;;;;;;;;;;;7.88;70.93;98782.91;109608;1252;71838;-61
2024/01/01 05:23:02;;;;;;;;;;;;;;;7.80;71.23;98782.74;109554;1252;60953;-64
2024/01/01 05:25:30;;;;;;;;;;;;;;;7.87;71.04;98780.52;109394;1252;293730;-64
2024/01/01 05:27:57;;;;;;;;;;;;;;;7.97;70.73;98781.22;109603;1252;73390;-64
2024/01/01 05:30:29;;;;;;;;;;;;;;;8.03;70.09;98788.95;109588;1253;67443;-64
2024/01/01 05:32:56;;;;;;;;;;;;;;;7.96;70.06;98796.30;109568;1252;72717;-65
2024/01/01 05:35:24;;;;;;;;;;;;;;;7.89;70.40;98791.27;109517;1256;61088;-64
2024/01/01 05:37:51;;;;;;;;;;;;;;;7.91;70.42;98782.95;109549;1252;59856;-65
2024/01/01 05:40:19;;;;;;;;;;;;;;;8.02;69.83;98777.84;109460;1252;74155;-65
2024/01/01 05:42:46;;;;;;;;;;;;;;;8.05;69.63;98775.78;109548;1252;68537;-65
2024/01/01 05:45:14;;;;;;;;;;;;;;;8.00;70.00;98776.27;109587;1252;70493;-68
2024/01/01 05:47:41;;;;;;;;;;;;;;;8.00;69.80;98775.32;109551;1253;59781;-64
2024/01/01 05:50:09;;;;;;;;;;;;;;;7.93;69.94;98769.86;109488;1255;59693;-65
2024/01/01 05:52:37;;;;;;;;;;;;;;;7.84;70.55;98765.20;109453;1253;74262;-65
2024/01/01 05:55:04;;;;;;;;;;;;;;;7.82;70.79;98759.89;109360;1252;68825;-66
2024/01/01 05:57:32;;;;;;;;;;;;;;;7.86;70.61;98758.96;109444;1255;71430;-66
2024/01/01 05:59:59;;;;;;;;;;;;;;;7.81;70.95;98760.41;109322;1253;60953;-66
2024/01/01 06:02:28;;;;;;;;;;;;;;;7.86;70.79;98759.77;109118;1253;59830;-65
2024/01/01 06:04:55;;;;;;;;;;;;;;;7.78;71.28;98757.49;109503;1252;76386;-66
2024/01/01 06:07:23;;;;;;;;;;;;;;;7.79;71.16;98759.01;109362;1253;68572;-66
2024/01/01 06:09:50;;;;;;;;;;;;;;;7.67;71.61;98758.05;109579;1251;72734;-66
2024/01/01 06:12:17;;;;;;;;;;;;;;;7.58;72.34;98752.80;109379;1252;60968;-65
2024/01/01 06:14:46;;;;;;;;;;;;;;;7.71;71.86;98755.14;109582;1253;59894;-65
2024/01/01 06:17:13;;;;;;;;;;;;;;;7.78;71.41;98756.64;109339;1252;75518;-68
2024/01/01 06:19:44;;;;;;;;;;;;;;;7.60;72.22;98758.89;109326;1253;67325;-65
2024/01/01 06:22:11;;;;;;;;;;;;;;;7.59;72.60;98753.06;109516;1251;72976;-65
2024/01/01 06:24:39;;;;;;;;;;;;;;;7.64;72.43;98748.36;109542;1253;60962;-67
2024/01/01 06:27:06;;;;;;;;;;;;;;;7.57;72.96;98755.03;109583;1251;59679;-61
2024/01/01 06:29:34;;;;;;;;;;;;;;;7.63;72.61;98746.70;109634;1252;74239;-63
2024/01/01 06:32:01;;;;;;;;;;;;;;;7.61;72.75;98738.66;109663;1251;68564;-62
2024/01/01 06:34:29;;;;;;;;;;;;;;;7.56;73.16;98736.27;109526;1253;71451;-63
2024/01/01 06:36:56;;;;;;;;;;;;;;;7.71;72.49;98744.69;109574;1252;59767;-62
2024/01/01 06:39:24;;;;;;;;;;;;;;;7.79;72.19;98743.89;109606;1253;59859;-62
2024/01/01 06:41:51;;;;;;;;;;;;;;;7.97;71.20;98741.08;109649;1251;74225;-65
2024/01/01 06:44:19;;;;;;;;;;;;;;;7.96;71.05;98734.82;109634;1253;68981;-65
2024/01/01 06:46:47;;;;;;;;;;;;;;;8.04;70.57;98728.80;109532;1253;72747;-66
2024/01/01 06:49:14;;;;;;;;;;;;;;;7.83;71.64;98725.52;109541;1253;59966;-66
2024/01/01 06:51:42;;;;;;;;;;;;;;;7.83;71.90;98725.38;109357;1253;60314;-65
2024/01/01 06:54:09;;;;;;;;;;;;;;;7.79;72.16;98722.58;109539;1252;75555;-65
2024/01/01 06:56:39;;;;;;;;;;;;;;;7.84;72.11;98722.98;109368;1253;66990;-65
2024/01/01 06:59:06;;;;;;;;;;;;;;;7.99;71.59;98728.22;109340;1253;72732;-62
2024/01/01 07:01:34;;;;;;;;;;;;;;;8.06;71.15;98722.17;109476;1254;59951;-62
2024/01/01 07:04:01;;;;;;;;;;;;;;;8.04;71.22;98721.46;109370;1253;59762;-64
2024/01/01 07:06:29;;;;;;;;;;;;;;;8.09;71.03;98718.25;109355;1253;75595;-65
2024/01/01 07:08:56;;;;;;;;;;;;;;;8.12;70.92;98716.44;109295;1252;67257;-63
2024/01/01 07:11:24;;;;;;;;;;;;;;;8.16;70.80;98721.92;109565;1253;71724;-63
2024/01/01 07:13:51;;;;;;;;;;;;;;;8.17;70.85;98714.34;109537;1253;59765;-62
2024/01/01 07:16:19;;;;;;;;;;;;;;;8.24;70.63;98715.98;109635;1252;59848;-62
2024/01/01 07:18:47;;;;;;;;;;;;;;;8.27;70.66;98721.49;109612;1253;75509;-63
2024/01/01 07:21:14;;;;;;;;;;;;;;;8.34;70.63;98719.34;109630;1252;68965;-63
2024/01/01 07:23:42;;;;;;;;;;;;;;;8.32;70.57;98728.38;109494;1253;72698;-61
2024/01/01 07:26:09;;;;;;;;;;;;;;;8.46;70.07;98732.16;109590;1252;60924;-63
2024/01/01 07:28:37;;;;;;;;;;;;;;;8.54;69.76;98730.39;109532;1253;59713;-63
2024/01/01 07:31:04;;;;;;;;;;;;;;;8.60;69.71;98722.71;109542;1251;75524;-62
2024/01/01 07:33:33;;;;;;;;;;;;;;;8.64;69.30;98716.85;109602;1253;67593;-65
2024/01/01 07:36:00;;;;;;;;;;;;;;;8.74;68.75;98704.36;109090;1255;72730;-64
2024/01/01 07:38:28;;;;;;;;;;;;;;;8.74;68.58;98700.93;109084;1256;59790;-64
2024/01/01 07:40:56;;;;;;;;;;;;;;;8.82;68.43;98695.94;109368;1255;59641;-64
2024/01/01 07:43:23;;;;;;;;;;;;;;;8.92;67.89;98698.38;109402;1255;75500;-63
2024/01/01 07:45:50;;;;;;;;;;;;;;;8.97;67.67;98698.48;109444;1254;67559;-63
2024/01/01 07:48:18;;;;;;;;;;;;;;;8.79;67.97;98698.05;109392;1256;72767;-63
2024/01/01 07:50:45;;;;;;;;;;;;;;;8.80;68.38;98700.69;109287;1254;59757;-64
2024/01/01 07:53:13;;;;;;;;;;;;;;;8.69;68.84;98692.46;109265;1255;59865;-64
2024/01/01 07:55:41;;;;;;;;;;;;;;;8.82;68.77;98687.05;109274;1255;74526;-65
2024/01/01 07:58:09;;;;;;;;;;;;;;;8.89;68.33;98688.89;109057;1256;69319;-63
2024/01/01 08:00:36;;;;;;;;;;;;;;;8.97;68.18;98688.59;109241;1256;71915;-64
2024/01/01 08:03:04;;;;;;;;;;;;;;;9.07;67.80;98694.02;109177;1254;60961;-64
2024/01/01 08:05:32;;;;;;;;;;;;;;;9.04;67.35;98693.31;109132;1255;60381;-64
2024/01/01 08:07:59;;;;;;;;;;;;;;;9.04;67.39;98689.46;109147;1252;76014;-65
2024/01/01 08:10:27;;;;;;;;;;;;;;;9.10;67.53;98695.58;109534;1252;69035;-64
2024/01/01 08:12:55;;;;;;;;;;;;;;;9.13;67.13;98688.58;109575;1252;71745;-65
2024/01/01 08:15:24;;;;;;;;;;;;;;;9.15;67.13;98681.29;109490;1253;60934;-65
2024/01/01 08:17:51;;;;;;;;;;;;;;;9.08;67.03;98675.39;109591;1252;59725;-69
2024/01/01 08:20:19;;;;;;;;;;;;;;;9.05;67.50;98670.13;109584;1256;75506;-66
2024/01/01 08:22:47;;;;;;;;;;;;;;;9.01;67.90;98668.10;109562;1253;67544;-67
2024/01/01 08:25:15;;;;;;;;;;;;;;;9.02;67.94;98668.95;109643;1252;72681;-65
2024/01/01 08:27:42;;;;;;;;;;;;;;;9.10;67.90;98669.70;109580;1253;60067;-65
2024/01/01 08:30:10;;;;;;;;;;;;;;;8.99;68.24;98674.63;109585;1251;59877;-62
2024/01/01 08:32:37;;;;;;;;;;;;;;;9.02;68.09;98671.73;109504;1252;75534;-65
2024/01/01 08:35:05;;;;;;;;;;;;;;;8.98;68.37;98664.61;109449;1253;68906;-65
2024/01/01 08:37:32;;;;;;;;;;;;;;;8.89;68.79;98664.75;109520;1252;72742;-65
2024/01/01 08:40:00;;;;;;;;;;;;;;;8.92;68.43;98657.64;109574;1252;59713;-63
2024/01/01 08:42:27;;;;;;;;;;;;;;;9.00;68.93;98648.70;109602;1253;59768;-65
2024/01/01 08:44:55;;;;;;;;;;;;;;;9.09;68.29;98634.86;109529;1252;75568;-64
2024/01/01 08:47:22;;;;;;;;;;;;;;;9.05;68.55;98631.96;109553;1252;67249;-65
2024/01/01 08:49:50;;;;;;;;;;;;;;;9.23;68.10;98618.16;109516;1253;71792;-65
2024/01/01 08:52:17;;;;;;;;;;;;;;;9.26;67.32;98612.64;109525;1254;59808;-65
2024/01/01 08:54:45;;;;;;;;;;;;;;;9.35;67.62;98619.51;109493;1253;59838;-65
2024/01/01 08:57:12;;;;;;;;;;;;;;;9.47;66.34;98616.39;109584;1253;75547;-67
2024/01/01 08:59:40;;;;;;;;;;;;;;;9.34;66.23;98602.80;109132;1253;68842;-63
2024/01/01 09:02:07;;;;;;;;;;;;;;;9.35;66.15;98600.81;109315;1253;72702;-64
2024/01/01 09:04:35;;;;;;;;;;;;;;;9.23;67.26;98630.64;109481;1255;59741;-64
2024/01/01 09:07:04;;;;;;;;;;;;;;;9.26;66.97;98616.30;109525;1252;59738;-65
2024/01/01 09:09:32;;;;;;;;;;;;;;;9.11;67.58;98609.75;109564;1253;75541;-66
2024/01/01 09:11:59;;;;;;;;;;;;;;;9.25;67.18;98606.92;109598;1252;67566;-63
2024/01/01 09:14:27;;;;;;;;;;;;;;;9.03;67.83;98605.52;109323;1253;74950;-66
2024/01/01 09:16:55;;;;;;;;;;;;;;;9.08;67.87;98603.80;109270;1255;61029;-65
2024/01/01 09:19:22;;;;;;;;;;;;;;;9.01;68.27;98593.80;109646;1252;59658;-65
2024/01/01 09:21:50;;;;;;;;;;;;;;;9.11;67.90;98594.17;109505;1253;75421;-66
2024/01/01 09:24:17;;;;;;;;;;;;;;;8.99;68.20;98590.41;109116;1255;67750;-65
2024/01/01 09:26:46;;;;;;;;;;;;;;;8.80;69.14;98586.76;109095;1256;72733;-65
2024/01/01 09:29:13;;;;;;;;;;;;;;;8.87;69.04;98581.73;109221;1256;60926;-65
2024/01/01 09:31:41;;;;;;;;;;;;;;;9.11;67.94;98582.29;109285;1256;59849;-65
2024/01/01 09:34:08;;;;;;;;;;;;;;;8.96;68.48;98576.77;109299;1256;74240;-66
2024/01/01 09:36:37;;;;;;;;;;;;;;;9.06;67.99;98572.27;109056;1255;67646;-66
2024/01/01 09:39:19;;;;;;;;;;;;;;;9.16;67.65;98566.92;109048;1254;72765;-65
2024/01/01 09:41:48;;;;;;;;;;;;;;;9.05;67.92;98565.69;109189;1256;59829;-66
2024/01/01 09:44:15;;;;;;;;;;;;;;;8.99;68.27;98551.98;109261;1254;59869;-65
2024/01/01 09:46:44;;;;;;;;;;;;;;;9.05;68.18;98532.60;109148;1256;75533;-67
2024/01/01 09:49:11;;;;;;;;;;;;;;;9.10;68.19;98556.95;108961;1256;68808;-66
2024/01/01 09:51:39;;;;;;;;;;;;;;;9.16;67.48;98548.40;109121;1256;72777;-66
2024/01/01 09:54:09;;;;;;;;;;;;;;;9.16;67.67;98549.58;109166;1256;59843;-66
2024/01/01 09:56:36;;;;;;;;;;;;;;;9.20;67.66;98545.98;109103;1252;59876;-65
2024/01/01 09:59:04;;;;;;;;;;;;;;;9.32;66.97;98546.19;109147;1253;74678;-65
2024/01/01 10:01:33;;;;;;;;;;;;;;;9.21;67.44;98534.79;109273;1253;68986;-64
2024/01/01 10:04:02;;;;;;;;;;;;;;;9.20;67.80;98531.90;109320;1253;70634;-66
2024/01/01 10:06:30;;;;;;;;;;;;;;;9.14;68.08;98526.81;109035;1257;60958;-66
2024/01/01 10:09:07;;;;;;;;;;;;;;;9.14;67.99;98519.00;109099;1256;59889;-65
2024/01/01 10:11:35;;;;;;;;;;;;;;;9.29;67.41;98512.66;109229;1256;75744;-64
2024/01/01 10:14:06;;;;;;;;;;;;;;;9.41;66.75;98516.34;109094;1255;67595;-65
2024/01/01 10:16:34;;;;;;;;;;;;;;;9.49;66.73;98519.16;109199;1255;71435;-64
2024/01/01 10:19:02;;;;;;;;;;;;;;;9.49;66.32;98510.91;108912;1257;60898;-65
2024/01/01 10:21:47;;;;;;;;;;;;;;;9.69;65.90;98520.12;109043;1259;59809;-65
2024/01/01 10:24:15;;;;;;;;;;;;;;;9.79;65.28;98509.05;108991;1257;75969;-65
2024/01/01 10:26:58;;;;;;;;;;;;;;;9.84;64.95;98499.60;108952;1261;67604;-65
2024/01/01 10:29:26;;;;;;;;;;;;;;;9.89;64.60;98494.36;109000;1257;72871;-64
2024/01/01 10:31:53;;;;;;;;;;;;;;;9.84;65.14;98485.81;109088;1257;59812;-65
2024/01/01 10:34:21;;;;;;;;;;;;;;;9.76;65.66;98480.38;108992;1257;60094;-65
2024/01/01 10:36:48;;;;;;;;;;;;;;;9.58;66.35;98483.94;109092;1257;75536;-65
2024/01/01 10:39:16;;;;;;;;;;;;;;;9.65;66.27;98479.51;109207;1256;68931;-65
2024/01/01 10:41:43;;;;;;;;;;;;;;;9.76;66.24;98475.98;109087;1256;71815;-66
2024/01/01 10:44:10;;;;;;;;;;;;;;;9.82;65.61;98461.97;109062;1256;59740;-66
2024/01/01 10:46:47;;;;;;;;;;;;;;;9.80;65.80;98465.79;109127;1256;59770;-65
2024/01/01 10:49:24;;;;;;;;;;;;;;;9.84;65.66;98454.79;109132;1257;75299;-65
2024/01/01 10:51:55;;;;;;;;;;;;;;;9.87;65.46;98445.77;109313;1253;67726;-65
2024/01/01 10:54:28;;;;;;;;;;;;;;;10.08;64.79;98442.44;109319;1256;72753;-65
2024/01/01 10:57:15;;;;;;;;;;;;;;;9.94;64.76;98435.16;109282;1255;59794;-63
2024/01/01 10:59:52;;;;;;;;;;;;;;;9.81;65.79;98438.02;109084;1260;59792;-63
2024/01/01 11:02:20;;;;;;;;;;;;;;;9.79;66.12;98428.42;109291;1253;73881;-65
2024/01/01 11:04:50;;;;;;;;;;;;;;;9.84;65.87;98419.95;109096;1257;69227;-66
2024/01/01 11:07:38;;;;;;;;;;;;;;;9.74;66.15;98409.96;109057;1258;71461;-63
2024/01/01 11:10:05;;;;;;;;;;;;;;;9.67;66.41;98406.10;109140;1256;61041;-62
2024/01/01 11:12:45;;;;;;;;;;;;;;;9.65;66.92;98400.90;109041;1256;59766;-62
2024/01/01 11:15:31;;;;;;;;;;;;;;;9.76;66.35;98396.02;109133;1255;75518;-63
2024/01/01 11:18:01;;;;;;;;;;;;;;;9.50;67.59;98402.27;109190;1256;68571;-62
2024/01/01 11:20:47;;;;;;;;;;;;;;;9.60;67.39;98407.41;109081;1256;71892;-62
2024/01/01 11:23:33;;;;;;;;;;;;;;;9.68;66.86;98404.52;109070;1257;59736;-62
2024/01/01 11:26:01;;;;;;;;;;;;;;;9.62;67.41;98407.73;109107;1256;60129;-62
2024/01/01 11:28:38;;;;;;;;;;;;;;;9.77;66.74;98404.64;109123;1261;75528;-62
2024/01/01 11:31:07;;;;;;;;;;;;;;;9.87;66.05;98393.92;109119;1256;67414;-62
2024/01/01 11:33:36;;;;;;;;;;;;;;;10.06;65.28;98396.16;109000;1259;72778;-62
2024/01/01 11:36:05;;;;;;;;;;;;;;;9.97;65.34;98390.38;109111;1256;59810;-64
2024/01/01 11:38:33;;;;;;;;;;;;;;;9.85;65.92;98383.59;109193;1256;59916;-65
2024/01/01 11:41:00;;;;;;;;;;;;;;;9.88;66.08;98378.48;109196;1256;75546;-65
2024/01/01 11:43:28;;;;;;;;;;;;;;;9.89;66.03;98382.08;109123;1256;67670;-65
2024/01/01 11:45:55;;;;;;;;;;;;;;;9.60;67.41;98374.89;109168;1256;72802;-65
2024/01/01 11:48:29;;;;;;;;;;;;;;;9.76;67.13;98378.06;109130;1257;59768;-64
2024/01/01 11:51:03;;;;;;;;;;;;;;;9.90;66.48;98377.23;109081;1258;59797;-65
2024/01/01 11:53:31;;;;;;;;;;;;;;;10.02;65.87;98371.53;109064;1259;75669;-64
2024/01/01 11:56:05;;;;;;;;;;;;;;;10.03;65.75;98372.02;109007;1257;67916;-66
2024/01/01 11:58:33;;;;;;;;;;;;;;;9.89;66.39;98369.58;109029;1257;71442;-65
2024/01/01 12:01:01;;;;;;;;;;;;;;;9.68;67.55;98370.08;109102;1258;60979;-66
2024/01/01 12:03:29;;;;;;;;;;;;;;;9.66;68.22;98365.32;109096;1262;59962;-66
2024/01/01 12:06:03;;;;;;;;;;;;;;;9.76;67.93;98365.38;109457;1253;74905;-66
2024/01/01 12:08:31;;;;;;;;;;;;;;;9.85;67.51;98363.81;109476;1254;67351;-65
2024/01/01 12:10:59;;;;;;;;;;;;;;;9.99;66.99;98361.70;109562;1254;72721;-66
2024/01/01 12:13:27;;;;;;;;;;;;;;;10.00;66.93;98358.20;109631;1253;60907;-66
2024/01/01 12:15:54;;;;;;;;;;;;;;;9.75;68.06;98350.59;109516;1253;59745;-66
2024/01/01 12:18:21;;;;;;;;;;;;;;;9.76;68.22;98345.11;109263;1259;74024;-65
2024/01/01 12:20:49;;;;;;;;;;;;;;;9.71;68.54;98336.14;109566;1252;68823;-66
2024/01/01 12:23:21;;;;;;;;;;;;;;;9.80;68.29;98335.59;109638;1252;72832;-64
2024/01/01 12:26:00;;;;;;;;;;;;;;;9.91;67.82;98329.84;109614;1254;59720;-66
2024/01/01 12:28:28;;;;;;;;;;;;;;;9.87;67.99;98335.92;109623;1254;59705;-66
2024/01/01 12:30:55;;;;;;;;;;;;;;;9.99;67.59;98332.30;109564;1253;74251;-66
2024/01/01 12:33:23;;;;;;;;;;;;;;;9.93;67.82;98331.39;109594;1254;68549;-66
2024/01/01 12:35:52;;;;;;;;;;;;;;;9.90;68.11;98317.95;109520;1252;71584;-64
2024/01/01 12:38:19;;;;;;;;;;;;;;;9.99;67.85;98313.65;109591;1253;59734;-66
2024/01/01 12:40:47;;;;;;;;;;;;;;;9.89;68.45;98310.67;109281;1252;59802;-67
2024/01/01 12:43:14;;;;;;;;;;;;;;;9.64;70.40;98317.69;109580;1253;73254;-67
2024/01/01 12:45:42;;;;;;;;;;;;;;;9.77;70.39;98312.20;109352;1253;67198;-66
2024/01/01 12:48:09;;;;;;;;;;;;;;;9.86;70.07;98311.98;109502;1254;72721;-65
2024/01/01 12:50:37;;;;;;;;;;;;;;;9.88;70.37;98314.85;109448;1253;64266;-66